sensor_id;sensor_type;location;lat;lon;timestamp;P1;durP1;ratioP1;P2;durP2;ratioP2
22646;SDS011;11490;42.726;23.268;2023-09-12T00:02:24;5.70;;;3.25;;
22646;SDS011;11490;42.726;23.268;2023-09-12T00:04:49;6.93;;;3.45;;
22646;SDS011;11490;42.726;23.268;2023-09-12T00:07:15;7.05;;;3.15;;
22646;SDS011;11490;42.726;23.268;2023-09-12T00:09:41;3.95;;;2.97;;
22646;SDS011;11490;42.726;23.268;2023-09-12T00:12:06;4.45;;;3.13;;
22646;SDS011;11490;42.726;23.268;2023-09-12T00:14:33;6.97;;;3.17;;
22646;SDS011;11490;42.726;23.268;2023-09-12T00:17:06;6.28;;;3.00;;
22646;SDS011;11490;42.726;23.268;2023-09-12T00:19:31;8.98;;;2.75;;
22646;SDS011;11490;42.726;23.268;2023-09-12T00:21:57;8.07;;;2.75;;
22646;SDS011;11490;42.726;23.268;2023-09-12T00:24:22;5.97;;;3.55;;
22646;SDS011;11490;42.726;23.268;2023-09-12T00:26:48;4.15;;;2.75;;
22646;SDS011;11490;42.726;23.268;2023-09-12T00:29:13;4.18;;;3.10;;
22646;SDS011;11490;42.726;23.268;2023-09-12T00:31:38;3.58;;;2.80;;
22646;SDS011;11490;42.726;23.268;2023-09-12T00:34:04;8.15;;;2.95;;
22646;SDS011;11490;42.726;23.268;2023-09-12T00:36:29;6.35;;;2.83;;
22646;SDS011;11490;42.726;23.268;2023-09-12T00:38:55;7.97;;;3.20;;
22646;SDS011;11490;42.726;23.268;2023-09-12T00:41:20;4.07;;;2.75;;
22646;SDS011;11490;42.726;23.268;2023-09-12T00:43:46;5.32;;;3.03;;
22646;SDS011;11490;42.726;23.268;2023-09-12T00:46:15;4.32;;;2.88;;
22646;SDS011;11490;42.726;23.268;2023-09-12T00:48:44;4.25;;;2.75;;
22646;SDS011;11490;42.726;23.268;2023-09-12T00:51:11;5.82;;;2.95;;
22646;SDS011;11490;42.726;23.268;2023-09-12T00:53:39;4.85;;;2.90;;
22646;SDS011;11490;42.726;23.268;2023-09-12T00:56:04;6.78;;;3.80;;
22646;SDS011;11490;42.726;23.268;2023-09-12T00:58:31;4.80;;;2.72;;
22646;SDS011;11490;42.726;23.268;2023-09-12T01:00:57;7.30;;;3.60;;
22646;SDS011;11490;42.726;23.268;2023-09-12T01:03:23;6.18;;;3.50;;
22646;SDS011;11490;42.726;23.268;2023-09-12T01:05:49;8.52;;;2.90;;
22646;SDS011;11490;42.726;23.268;2023-09-12T01:08:19;3.78;;;2.90;;
22646;SDS011;11490;42.726;23.268;2023-09-12T01:10:47;5.28;;;3.20;;
22646;SDS011;11490;42.726;23.268;2023-09-12T01:13:14;3.90;;;2.58;;
22646;SDS011;11490;42.726;23.268;2023-09-12T01:15:40;8.70;;;3.45;;
22646;SDS011;11490;42.726;23.268;2023-09-12T01:18:06;8.52;;;3.65;;
22646;SDS011;11490;42.726;23.268;2023-09-12T01:20:32;3.63;;;2.65;;
22646;SDS011;11490;42.726;23.268;2023-09-12T01:28:44;3.50;;;2.60;;
22646;SDS011;11490;42.726;23.268;2023-09-12T01:31:10;6.03;;;2.90;;
22646;SDS011;11490;42.726;23.268;2023-09-12T01:33:37;6.20;;;3.05;;
22646;SDS011;11490;42.726;23.268;2023-09-12T01:36:03;5.80;;;3.33;;
22646;SDS011;11490;42.726;23.268;2023-09-12T01:38:29;3.95;;;3.15;;
22646;SDS011;11490;42.726;23.268;2023-09-12T01:40:55;4.95;;;3.17;;
22646;SDS011;11490;42.726;23.268;2023-09-12T01:43:21;5.10;;;2.97;;
22646;SDS011;11490;42.726;23.268;2023-09-12T01:45:52;4.95;;;2.75;;
22646;SDS011;11490;42.726;23.268;2023-09-12T01:48:21;5.88;;;2.83;;
22646;SDS011;11490;42.726;23.268;2023-09-12T01:50:51;3.75;;;2.67;;
22646;SDS011;11490;42.726;23.268;2023-09-12T01:53:17;4.75;;;3.33;;
22646;SDS011;11490;42.726;23.268;2023-09-12T01:55:44;8.35;;;3.00;;
22646;SDS011;11490;42.726;23.268;2023-09-12T01:58:13;6.70;;;2.90;;
22646;SDS011;11490;42.726;23.268;2023-09-12T02:00:40;4.15;;;2.67;;
22646;SDS011;11490;42.726;23.268;2023-09-12T02:03:06;3.20;;;2.85;;
22646;SDS011;11490;42.726;23.268;2023-09-12T02:05:32;3.00;;;2.13;;
22646;SDS011;11490;42.726;23.268;2023-09-12T02:07:57;7.10;;;2.97;;
22646;SDS011;11490;42.726;23.268;2023-09-12T02:10:26;5.80;;;3.05;;
22646;SDS011;11490;42.726;23.268;2023-09-12T02:12:52;3.13;;;2.15;;
22646;SDS011;11490;42.726;23.268;2023-09-12T02:15:18;6.88;;;3.05;;
22646;SDS011;11490;42.726;23.268;2023-09-12T02:17:43;4.18;;;2.47;;
22646;SDS011;11490;42.726;23.268;2023-09-12T02:20:09;5.05;;;2.65;;
22646;SDS011;11490;42.726;23.268;2023-09-12T02:22:35;4.25;;;2.40;;
22646;SDS011;11490;42.726;23.268;2023-09-12T02:25:02;8.68;;;3.10;;
22646;SDS011;11490;42.726;23.268;2023-09-12T02:27:30;4.95;;;3.00;;
22646;SDS011;11490;42.726;23.268;2023-09-12T02:29:55;5.78;;;2.80;;
22646;SDS011;11490;42.726;23.268;2023-09-12T02:32:21;3.97;;;2.67;;
22646;SDS011;11490;42.726;23.268;2023-09-12T02:34:46;5.90;;;2.83;;
22646;SDS011;11490;42.726;23.268;2023-09-12T02:37:11;6.07;;;2.83;;
22646;SDS011;11490;42.726;23.268;2023-09-12T02:39:37;3.92;;;3.08;;
22646;SDS011;11490;42.726;23.268;2023-09-12T02:42:03;5.55;;;2.95;;
22646;SDS011;11490;42.726;23.268;2023-09-12T02:44:28;7.40;;;3.80;;
22646;SDS011;11490;42.726;23.268;2023-09-12T02:46:54;4.80;;;3.25;;
22646;SDS011;11490;42.726;23.268;2023-09-12T02:49:19;5.50;;;3.95;;
22646;SDS011;11490;42.726;23.268;2023-09-12T02:51:45;5.28;;;3.78;;
22646;SDS011;11490;42.726;23.268;2023-09-12T02:54:11;5.10;;;3.55;;
22646;SDS011;11490;42.726;23.268;2023-09-12T02:56:36;9.38;;;3.67;;
22646;SDS011;11490;42.726;23.268;2023-09-12T02:59:01;5.85;;;4.55;;
22646;SDS011;11490;42.726;23.268;2023-09-12T03:01:27;8.45;;;3.78;;
22646;SDS011;11490;42.726;23.268;2023-09-12T03:03:53;4.32;;;3.58;;
22646;SDS011;11490;42.726;23.268;2023-09-12T03:06:19;8.07;;;3.67;;
22646;SDS011;11490;42.726;23.268;2023-09-12T03:08:45;4.20;;;2.85;;
22646;SDS011;11490;42.726;23.268;2023-09-12T03:11:11;4.97;;;3.38;;
22646;SDS011;11490;42.726;23.268;2023-09-12T03:13:37;4.95;;;3.35;;
22646;SDS011;11490;42.726;23.268;2023-09-12T03:16:04;6.60;;;3.50;;
22646;SDS011;11490;42.726;23.268;2023-09-12T03:18:30;5.00;;;3.90;;
22646;SDS011;11490;42.726;23.268;2023-09-12T03:20:55;8.25;;;3.78;;
22646;SDS011;11490;42.726;23.268;2023-09-12T03:23:21;4.60;;;3.10;;
22646;SDS011;11490;42.726;23.268;2023-09-12T03:25:47;6.78;;;3.13;;
22646;SDS011;11490;42.726;23.268;2023-09-12T03:28:12;4.95;;;3.42;;
22646;SDS011;11490;42.726;23.268;2023-09-12T03:30:38;7.18;;;3.67;;
22646;SDS011;11490;42.726;23.268;2023-09-12T03:33:04;8.68;;;3.58;;
22646;SDS011;11490;42.726;23.268;2023-09-12T03:35:31;8.13;;;3.28;;
22646;SDS011;11490;42.726;23.268;2023-09-12T03:37:57;4.63;;;3.50;;
22646;SDS011;11490;42.726;23.268;2023-09-12T03:40:23;5.30;;;3.83;;
22646;SDS011;11490;42.726;23.268;2023-09-12T03:42:48;6.68;;;3.97;;
22646;SDS011;11490;42.726;23.268;2023-09-12T03:45:13;4.80;;;3.08;;
22646;SDS011;11490;42.726;23.268;2023-09-12T03:47:39;5.32;;;3.25;;
22646;SDS011;11490;42.726;23.268;2023-09-12T03:50:05;4.97;;;3.10;;
22646;SDS011;11490;42.726;23.268;2023-09-12T03:52:30;5.45;;;3.38;;
22646;SDS011;11490;42.726;23.268;2023-09-12T03:54:56;4.65;;;3.33;;
22646;SDS011;11490;42.726;23.268;2023-09-12T03:57:21;4.55;;;3.70;;
22646;SDS011;11490;42.726;23.268;2023-09-12T03:59:47;10.18;;;3.92;;
22646;SDS011;11490;42.726;23.268;2023-09-12T04:02:12;5.28;;;3.20;;
22646;SDS011;11490;42.726;23.268;2023-09-12T04:04:38;5.85;;;3.33;;
22646;SDS011;11490;42.726;23.268;2023-09-12T04:07:04;5.10;;;3.63;;
22646;SDS011;11490;42.726;23.268;2023-09-12T04:09:30;8.15;;;3.30;;
22646;SDS011;11490;42.726;23.268;2023-09-12T04:11:55;6.65;;;3.67;;
22646;SDS011;11490;42.726;23.268;2023-09-12T04:14:20;5.63;;;3.38;;
22646;SDS011;11490;42.726;23.268;2023-09-12T04:16:46;5.90;;;3.50;;
22646;SDS011;11490;42.726;23.268;2023-09-12T04:19:13;11.68;;;3.33;;
22646;SDS011;11490;42.726;23.268;2023-09-12T04:21:39;7.07;;;3.17;;
22646;SDS011;11490;42.726;23.268;2023-09-12T04:24:05;4.07;;;2.85;;
22646;SDS011;11490;42.726;23.268;2023-09-12T04:26:31;7.10;;;3.22;;
22646;SDS011;11490;42.726;23.268;2023-09-12T04:28:56;5.47;;;3.13;;
22646;SDS011;11490;42.726;23.268;2023-09-12T04:31:21;6.82;;;3.60;;
22646;SDS011;11490;42.726;23.268;2023-09-12T04:33:47;9.85;;;3.80;;
22646;SDS011;11490;42.726;23.268;2023-09-12T04:36:12;6.13;;;3.35;;
22646;SDS011;11490;42.726;23.268;2023-09-12T04:38:38;5.45;;;4.03;;
22646;SDS011;11490;42.726;23.268;2023-09-12T04:41:03;7.60;;;4.00;;
22646;SDS011;11490;42.726;23.268;2023-09-12T04:43:31;10.57;;;3.53;;
22646;SDS011;11490;42.726;23.268;2023-09-12T04:45:57;5.60;;;4.22;;
22646;SDS011;11490;42.726;23.268;2023-09-12T04:48:22;5.88;;;4.40;;
22646;SDS011;11490;42.726;23.268;2023-09-12T04:50:48;5.03;;;3.65;;
22646;SDS011;11490;42.726;23.268;2023-09-12T04:53:13;21.55;;;13.40;;
22646;SDS011;11490;42.726;23.268;2023-09-12T04:55:39;12.93;;;6.35;;
22646;SDS011;11490;42.726;23.268;2023-09-12T04:58:04;6.75;;;4.53;;
22646;SDS011;11490;42.726;23.268;2023-09-12T05:00:31;6.03;;;4.50;;
22646;SDS011;11490;42.726;23.268;2023-09-12T05:02:56;6.30;;;4.13;;
22646;SDS011;11490;42.726;23.268;2023-09-12T05:05:25;5.75;;;3.67;;
22646;SDS011;11490;42.726;23.268;2023-09-12T05:07:58;5.53;;;3.70;;
22646;SDS011;11490;42.726;23.268;2023-09-12T05:10:24;6.22;;;3.85;;
22646;SDS011;11490;42.726;23.268;2023-09-12T05:12:49;16.77;;;5.07;;
22646;SDS011;11490;42.726;23.268;2023-09-12T05:15:15;6.60;;;3.97;;
22646;SDS011;11490;42.726;23.268;2023-09-12T05:17:43;5.57;;;3.58;;
22646;SDS011;11490;42.726;23.268;2023-09-12T05:20:12;9.15;;;4.53;;
22646;SDS011;11490;42.726;23.268;2023-09-12T05:22:40;6.68;;;4.30;;
22646;SDS011;11490;42.726;23.268;2023-09-12T05:25:12;10.95;;;5.05;;
22646;SDS011;11490;42.726;23.268;2023-09-12T05:27:54;7.85;;;4.57;;
22646;SDS011;11490;42.726;23.268;2023-09-12T05:30:20;8.63;;;4.22;;
22646;SDS011;11490;42.726;23.268;2023-09-12T05:33:01;5.55;;;4.00;;
22646;SDS011;11490;42.726;23.268;2023-09-12T05:36:39;6.57;;;4.15;;
22646;SDS011;11490;42.726;23.268;2023-09-12T05:39:10;5.70;;;3.95;;
22646;SDS011;11490;42.726;23.268;2023-09-12T05:41:39;6.07;;;3.80;;
22646;SDS011;11490;42.726;23.268;2023-09-12T05:44:05;7.85;;;4.25;;
22646;SDS011;11490;42.726;23.268;2023-09-12T05:46:33;5.05;;;3.65;;
22646;SDS011;11490;42.726;23.268;2023-09-12T05:49:10;6.55;;;4.30;;
22646;SDS011;11490;42.726;23.268;2023-09-12T05:51:42;8.82;;;3.40;;
22646;SDS011;11490;42.726;23.268;2023-09-12T05:54:17;6.15;;;3.50;;
22646;SDS011;11490;42.726;23.268;2023-09-12T05:56:53;8.10;;;3.42;;
22646;SDS011;11490;42.726;23.268;2023-09-12T06:00:01;4.57;;;3.22;;
22646;SDS011;11490;42.726;23.268;2023-09-12T06:02:27;10.82;;;3.05;;
22646;SDS011;11490;42.726;23.268;2023-09-12T06:08:41;7.07;;;3.42;;
22646;SDS011;11490;42.726;23.268;2023-09-12T06:11:07;5.53;;;2.95;;
22646;SDS011;11490;42.726;23.268;2023-09-12T06:13:32;5.28;;;3.10;;
22646;SDS011;11490;42.726;23.268;2023-09-12T06:15:58;8.40;;;2.60;;
22646;SDS011;11490;42.726;23.268;2023-09-12T06:18:24;6.47;;;2.88;;
22646;SDS011;11490;42.726;23.268;2023-09-12T06:20:51;6.57;;;2.83;;
22646;SDS011;11490;42.726;23.268;2023-09-12T06:23:17;12.20;;;3.45;;
22646;SDS011;11490;42.726;23.268;2023-09-12T06:25:45;7.18;;;3.40;;
22646;SDS011;11490;42.726;23.268;2023-09-12T06:28:10;8.35;;;3.38;;
22646;SDS011;11490;42.726;23.268;2023-09-12T06:30:36;6.50;;;3.03;;
22646;SDS011;11490;42.726;23.268;2023-09-12T06:33:04;8.15;;;2.55;;
22646;SDS011;11490;42.726;23.268;2023-09-12T06:35:37;4.55;;;2.50;;
22646;SDS011;11490;42.726;23.268;2023-09-12T06:38:03;5.00;;;2.45;;
22646;SDS011;11490;42.726;23.268;2023-09-12T06:40:28;4.65;;;2.22;;
22646;SDS011;11490;42.726;23.268;2023-09-12T06:42:54;3.13;;;2.28;;
22646;SDS011;11490;42.726;23.268;2023-09-12T06:45:19;4.32;;;2.53;;
22646;SDS011;11490;42.726;23.268;2023-09-12T06:47:50;3.53;;;2.10;;
22646;SDS011;11490;42.726;23.268;2023-09-12T06:50:19;7.97;;;2.53;;
22646;SDS011;11490;42.726;23.268;2023-09-12T06:52:45;5.18;;;2.42;;
22646;SDS011;11490;42.726;23.268;2023-09-12T06:55:19;4.13;;;2.50;;
22646;SDS011;11490;42.726;23.268;2023-09-12T06:57:44;8.10;;;2.58;;
22646;SDS011;11490;42.726;23.268;2023-09-12T07:00:11;3.28;;;2.30;;
22646;SDS011;11490;42.726;23.268;2023-09-12T07:02:37;5.07;;;2.65;;
22646;SDS011;11490;42.726;23.268;2023-09-12T07:05:12;7.80;;;2.45;;
22646;SDS011;11490;42.726;23.268;2023-09-12T07:07:38;6.53;;;2.63;;
22646;SDS011;11490;42.726;23.268;2023-09-12T07:10:03;3.42;;;2.45;;
22646;SDS011;11490;42.726;23.268;2023-09-12T07:12:48;5.18;;;3.00;;
22646;SDS011;11490;42.726;23.268;2023-09-12T07:15:16;5.82;;;3.22;;
22646;SDS011;11490;42.726;23.268;2023-09-12T07:17:41;6.55;;;2.97;;
22646;SDS011;11490;42.726;23.268;2023-09-12T07:20:07;4.85;;;2.97;;
22646;SDS011;11490;42.726;23.268;2023-09-12T07:22:37;3.95;;;2.92;;
22646;SDS011;11490;42.726;23.268;2023-09-12T07:25:25;4.75;;;3.25;;
22646;SDS011;11490;42.726;23.268;2023-09-12T07:27:52;5.72;;;3.17;;
22646;SDS011;11490;42.726;23.268;2023-09-12T07:30:31;4.30;;;2.70;;
22646;SDS011;11490;42.726;23.268;2023-09-12T07:33:20;5.88;;;3.55;;
22646;SDS011;11490;42.726;23.268;2023-09-12T07:36:07;4.55;;;2.92;;
22646;SDS011;11490;42.726;23.268;2023-09-12T07:38:33;4.82;;;3.17;;
22646;SDS011;11490;42.726;23.268;2023-09-12T07:41:00;8.40;;;3.20;;
22646;SDS011;11490;42.726;23.268;2023-09-12T07:43:27;5.95;;;2.90;;
22646;SDS011;11490;42.726;23.268;2023-09-12T07:45:56;5.22;;;3.55;;
22646;SDS011;11490;42.726;23.268;2023-09-12T07:48:22;10.43;;;3.55;;
22646;SDS011;11490;42.726;23.268;2023-09-12T07:50:48;9.98;;;3.08;;
22646;SDS011;11490;42.726;23.268;2023-09-12T07:53:13;4.28;;;3.10;;
22646;SDS011;11490;42.726;23.268;2023-09-12T07:55:39;5.00;;;2.88;;
22646;SDS011;11490;42.726;23.268;2023-09-12T07:58:14;7.40;;;3.38;;
22646;SDS011;11490;42.726;23.268;2023-09-12T08:00:40;3.75;;;2.53;;
22646;SDS011;11490;42.726;23.268;2023-09-12T08:03:06;5.28;;;2.95;;
22646;SDS011;11490;42.726;23.268;2023-09-12T08:05:35;4.55;;;2.90;;
22646;SDS011;11490;42.726;23.268;2023-09-12T08:10:55;10.43;;;2.83;;
22646;SDS011;11490;42.726;23.268;2023-09-12T08:13:31;5.95;;;2.55;;
22646;SDS011;11490;42.726;23.268;2023-09-12T08:15:59;3.05;;;2.25;;
22646;SDS011;11490;42.726;23.268;2023-09-12T08:18:34;6.70;;;2.80;;
22646;SDS011;11490;42.726;23.268;2023-09-12T08:21:00;5.10;;;2.70;;
22646;SDS011;11490;42.726;23.268;2023-09-12T08:23:28;6.70;;;2.08;;
22646;SDS011;11490;42.726;23.268;2023-09-12T08:25:53;3.13;;;1.98;;
22646;SDS011;11490;42.726;23.268;2023-09-12T08:28:18;6.38;;;2.83;;
22646;SDS011;11490;42.726;23.268;2023-09-12T08:30:51;7.95;;;2.65;;
22646;SDS011;11490;42.726;23.268;2023-09-12T08:33:17;5.93;;;2.25;;
22646;SDS011;11490;42.726;23.268;2023-09-12T08:36:05;5.93;;;2.22;;
22646;SDS011;11490;42.726;23.268;2023-09-12T08:38:43;5.05;;;2.45;;
22646;SDS011;11490;42.726;23.268;2023-09-12T08:41:50;6.55;;;1.70;;
22646;SDS011;11490;42.726;23.268;2023-09-12T08:44:16;3.80;;;2.25;;
22646;SDS011;11490;42.726;23.268;2023-09-12T08:46:41;4.63;;;1.90;;
22646;SDS011;11490;42.726;23.268;2023-09-12T08:49:07;4.10;;;1.70;;
22646;SDS011;11490;42.726;23.268;2023-09-12T08:51:34;3.22;;;1.50;;
22646;SDS011;11490;42.726;23.268;2023-09-12T08:54:02;4.15;;;2.22;;
22646;SDS011;11490;42.726;23.268;2023-09-12T08:56:29;5.43;;;1.73;;
22646;SDS011;11490;42.726;23.268;2023-09-12T08:58:58;8.07;;;2.97;;
22646;SDS011;11490;42.726;23.268;2023-09-12T09:01:25;2.85;;;2.20;;
22646;SDS011;11490;42.726;23.268;2023-09-12T09:04:11;4.75;;;2.20;;
22646;SDS011;11490;42.726;23.268;2023-09-12T09:06:37;9.27;;;2.10;;
22646;SDS011;11490;42.726;23.268;2023-09-12T09:09:07;6.88;;;1.75;;
22646;SDS011;11490;42.726;23.268;2023-09-12T09:11:36;3.25;;;1.95;;
22646;SDS011;11490;42.726;23.268;2023-09-12T09:14:05;8.05;;;1.80;;
22646;SDS011;11490;42.726;23.268;2023-09-12T09:16:30;2.85;;;1.58;;
22646;SDS011;11490;42.726;23.268;2023-09-12T09:18:59;3.80;;;2.20;;
22646;SDS011;11490;42.726;23.268;2023-09-12T09:21:30;4.25;;;1.52;;
22646;SDS011;11490;42.726;23.268;2023-09-12T09:24:01;2.97;;;1.80;;
22646;SDS011;11490;42.726;23.268;2023-09-12T09:26:52;6.68;;;1.52;;
22646;SDS011;11490;42.726;23.268;2023-09-12T09:29:27;2.78;;;1.52;;
22646;SDS011;11490;42.726;23.268;2023-09-12T09:32:02;4.15;;;1.98;;
22646;SDS011;11490;42.726;23.268;2023-09-12T09:34:30;4.40;;;1.70;;
22646;SDS011;11490;42.726;23.268;2023-09-12T09:36:57;3.53;;;1.92;;
22646;SDS011;11490;42.726;23.268;2023-09-12T09:39:23;5.40;;;1.92;;
22646;SDS011;11490;42.726;23.268;2023-09-12T09:41:51;2.75;;;1.65;;
22646;SDS011;11490;42.726;23.268;2023-09-12T09:44:18;2.78;;;1.65;;
22646;SDS011;11490;42.726;23.268;2023-09-12T09:46:46;4.53;;;1.77;;
22646;SDS011;11490;42.726;23.268;2023-09-12T09:49:27;4.20;;;1.70;;
22646;SDS011;11490;42.726;23.268;2023-09-12T09:51:52;4.72;;;2.10;;
22646;SDS011;11490;42.726;23.268;2023-09-12T09:54:19;2.65;;;1.42;;
22646;SDS011;11490;42.726;23.268;2023-09-12T09:56:53;3.22;;;2.00;;
22646;SDS011;11490;42.726;23.268;2023-09-12T09:59:23;3.97;;;1.63;;
22646;SDS011;11490;42.726;23.268;2023-09-12T10:01:50;5.70;;;2.08;;
22646;SDS011;11490;42.726;23.268;2023-09-12T10:04:20;4.75;;;1.75;;
22646;SDS011;11490;42.726;23.268;2023-09-12T10:06:47;4.25;;;2.25;;
22646;SDS011;11490;42.726;23.268;2023-09-12T10:09:14;4.68;;;2.25;;
22646;SDS011;11490;42.726;23.268;2023-09-12T10:11:42;4.85;;;2.13;;
22646;SDS011;11490;42.726;23.268;2023-09-12T10:14:10;3.42;;;1.60;;
22646;SDS011;11490;42.726;23.268;2023-09-12T10:16:57;5.97;;;2.30;;
22646;SDS011;11490;42.726;23.268;2023-09-12T10:19:27;5.38;;;1.95;;
22646;SDS011;11490;42.726;23.268;2023-09-12T10:35:38;2.40;;;1.40;;
22646;SDS011;11490;42.726;23.268;2023-09-12T11:07:58;5.50;;;1.52;;
22646;SDS011;11490;42.726;23.268;2023-09-12T11:10:51;4.05;;;1.83;;
22646;SDS011;11490;42.726;23.268;2023-09-12T11:14:14;4.55;;;1.85;;
22646;SDS011;11490;42.726;23.268;2023-09-12T11:19:43;5.28;;;1.75;;
22646;SDS011;11490;42.726;23.268;2023-09-12T11:28:06;3.03;;;2.03;;
22646;SDS011;11490;42.726;23.268;2023-09-12T11:30:55;4.43;;;2.47;;
22646;SDS011;11490;42.726;23.268;2023-09-12T11:36:21;6.85;;;2.22;;
22646;SDS011;11490;42.726;23.268;2023-09-12T11:39:03;4.68;;;2.50;;
22646;SDS011;11490;42.726;23.268;2023-09-12T11:45:42;2.45;;;1.52;;
22646;SDS011;11490;42.726;23.268;2023-09-12T12:01:43;3.15;;;1.90;;
22646;SDS011;11490;42.726;23.268;2023-09-12T12:04:14;4.78;;;2.17;;
22646;SDS011;11490;42.726;23.268;2023-09-12T12:06:43;3.85;;;2.47;;
22646;SDS011;11490;42.726;23.268;2023-09-12T12:12:52;2.88;;;2.00;;
22646;SDS011;11490;42.726;23.268;2023-09-12T12:15:18;3.42;;;1.88;;
22646;SDS011;11490;42.726;23.268;2023-09-12T12:17:43;6.88;;;1.90;;
22646;SDS011;11490;42.726;23.268;2023-09-12T12:20:09;4.97;;;1.98;;
22646;SDS011;11490;42.726;23.268;2023-09-12T12:22:36;3.88;;;2.50;;
22646;SDS011;11490;42.726;23.268;2023-09-12T12:25:06;5.93;;;3.22;;
22646;SDS011;11490;42.726;23.268;2023-09-12T12:27:35;5.40;;;3.03;;
22646;SDS011;11490;42.726;23.268;2023-09-12T12:46:30;4.72;;;2.03;;
22646;SDS011;11490;42.726;23.268;2023-09-12T12:48:57;5.20;;;2.80;;
22646;SDS011;11490;42.726;23.268;2023-09-12T12:51:23;4.90;;;2.90;;
22646;SDS011;11490;42.726;23.268;2023-09-12T12:53:52;3.38;;;2.20;;
22646;SDS011;11490;42.726;23.268;2023-09-12T12:56:20;5.35;;;1.80;;
22646;SDS011;11490;42.726;23.268;2023-09-12T12:58:51;5.13;;;2.30;;
22646;SDS011;11490;42.726;23.268;2023-09-12T13:01:37;2.67;;;1.60;;
22646;SDS011;11490;42.726;23.268;2023-09-12T13:04:07;3.30;;;1.90;;
22646;SDS011;11490;42.726;23.268;2023-09-12T13:06:33;2.17;;;1.65;;
22646;SDS011;11490;42.726;23.268;2023-09-12T13:09:01;2.75;;;1.50;;
22646;SDS011;11490;42.726;23.268;2023-09-12T13:11:30;3.17;;;1.55;;
22646;SDS011;11490;42.726;23.268;2023-09-12T13:13:59;3.60;;;1.60;;
22646;SDS011;11490;42.726;23.268;2023-09-12T13:16:24;2.88;;;1.73;;
22646;SDS011;11490;42.726;23.268;2023-09-12T13:18:50;6.40;;;1.77;;
22646;SDS011;11490;42.726;23.268;2023-09-12T13:21:15;3.75;;;1.63;;
22646;SDS011;11490;42.726;23.268;2023-09-12T13:23:41;4.50;;;1.98;;
22646;SDS011;11490;42.726;23.268;2023-09-12T13:26:07;5.85;;;2.00;;
22646;SDS011;11490;42.726;23.268;2023-09-12T13:28:33;6.97;;;2.00;;
22646;SDS011;11490;42.726;23.268;2023-09-12T13:30:59;3.10;;;1.63;;
22646;SDS011;11490;42.726;23.268;2023-09-12T13:33:24;3.58;;;1.40;;
22646;SDS011;11490;42.726;23.268;2023-09-12T13:35:50;4.90;;;2.20;;
22646;SDS011;11490;42.726;23.268;2023-09-12T13:38:16;3.28;;;1.83;;
22646;SDS011;11490;42.726;23.268;2023-09-12T13:40:43;7.22;;;2.17;;
22646;SDS011;11490;42.726;23.268;2023-09-12T13:43:10;5.80;;;1.73;;
22646;SDS011;11490;42.726;23.268;2023-09-12T13:45:36;3.25;;;2.05;;
22646;SDS011;11490;42.726;23.268;2023-09-12T13:48:02;4.70;;;1.80;;
22646;SDS011;11490;42.726;23.268;2023-09-12T13:50:29;5.68;;;1.98;;
22646;SDS011;11490;42.726;23.268;2023-09-12T13:52:56;3.47;;;1.73;;
22646;SDS011;11490;42.726;23.268;2023-09-12T13:55:24;3.15;;;1.50;;
22646;SDS011;11490;42.726;23.268;2023-09-12T13:57:50;4.75;;;1.83;;
22646;SDS011;11490;42.726;23.268;2023-09-12T14:00:15;6.68;;;2.03;;
22646;SDS011;11490;42.726;23.268;2023-09-12T14:02:41;4.57;;;1.77;;
22646;SDS011;11490;42.726;23.268;2023-09-12T14:05:06;3.28;;;1.83;;
22646;SDS011;11490;42.726;23.268;2023-09-12T14:07:32;3.33;;;1.63;;
22646;SDS011;11490;42.726;23.268;2023-09-12T14:09:57;5.18;;;2.25;;
22646;SDS011;11490;42.726;23.268;2023-09-12T14:12:23;5.03;;;2.08;;
22646;SDS011;11490;42.726;23.268;2023-09-12T14:14:50;4.13;;;1.70;;
22646;SDS011;11490;42.726;23.268;2023-09-12T14:17:16;3.20;;;1.60;;
22646;SDS011;11490;42.726;23.268;2023-09-12T14:19:44;3.47;;;1.92;;
22646;SDS011;11490;42.726;23.268;2023-09-12T14:22:09;2.67;;;1.33;;
22646;SDS011;11490;42.726;23.268;2023-09-12T14:24:37;2.88;;;1.60;;
22646;SDS011;11490;42.726;23.268;2023-09-12T14:27:04;3.30;;;1.83;;
22646;SDS011;11490;42.726;23.268;2023-09-12T14:29:32;3.70;;;1.88;;
22646;SDS011;11490;42.726;23.268;2023-09-12T14:31:58;6.10;;;1.70;;
22646;SDS011;11490;42.726;23.268;2023-09-12T14:34:24;4.35;;;2.03;;
22646;SDS011;11490;42.726;23.268;2023-09-12T14:36:56;5.15;;;1.70;;
22646;SDS011;11490;42.726;23.268;2023-09-12T14:39:22;5.28;;;2.30;;
22646;SDS011;11490;42.726;23.268;2023-09-12T14:41:48;6.93;;;2.85;;
22646;SDS011;11490;42.726;23.268;2023-09-12T14:44:26;5.22;;;1.88;;
22646;SDS011;11490;42.726;23.268;2023-09-12T14:46:53;3.80;;;1.77;;
22646;SDS011;11490;42.726;23.268;2023-09-12T14:49:18;3.63;;;1.92;;
22646;SDS011;11490;42.726;23.268;2023-09-12T14:51:44;7.80;;;1.95;;
22646;SDS011;11490;42.726;23.268;2023-09-12T14:54:09;4.85;;;2.08;;
22646;SDS011;11490;42.726;23.268;2023-09-12T14:56:35;3.15;;;1.50;;
22646;SDS011;11490;42.726;23.268;2023-09-12T14:59:01;5.28;;;2.08;;
22646;SDS011;11490;42.726;23.268;2023-09-12T15:01:29;4.28;;;1.60;;
22646;SDS011;11490;42.726;23.268;2023-09-12T15:03:55;20.38;;;2.50;;
22646;SDS011;11490;42.726;23.268;2023-09-12T15:06:21;3.22;;;1.92;;
22646;SDS011;11490;42.726;23.268;2023-09-12T15:08:46;4.65;;;2.00;;
22646;SDS011;11490;42.726;23.268;2023-09-12T15:11:12;5.55;;;1.85;;
22646;SDS011;11490;42.726;23.268;2023-09-12T15:13:37;7.97;;;2.30;;
22646;SDS011;11490;42.726;23.268;2023-09-12T15:16:03;3.30;;;1.90;;
22646;SDS011;11490;42.726;23.268;2023-09-12T15:18:29;5.82;;;1.75;;
22646;SDS011;11490;42.726;23.268;2023-09-12T15:20:58;4.82;;;1.70;;
22646;SDS011;11490;42.726;23.268;2023-09-12T15:23:23;3.17;;;1.83;;
22646;SDS011;11490;42.726;23.268;2023-09-12T15:25:52;3.85;;;2.05;;
22646;SDS011;11490;42.726;23.268;2023-09-12T15:28:18;4.45;;;1.85;;
22646;SDS011;11490;42.726;23.268;2023-09-12T15:30:43;6.38;;;2.03;;
22646;SDS011;11490;42.726;23.268;2023-09-12T15:33:09;5.47;;;2.63;;
22646;SDS011;11490;42.726;23.268;2023-09-12T15:35:34;4.20;;;1.90;;
22646;SDS011;11490;42.726;23.268;2023-09-12T15:38:00;4.47;;;1.92;;
22646;SDS011;11490;42.726;23.268;2023-09-12T15:40:26;4.50;;;2.45;;
22646;SDS011;11490;42.726;23.268;2023-09-12T15:42:52;7.15;;;1.95;;
22646;SDS011;11490;42.726;23.268;2023-09-12T15:45:18;3.72;;;1.95;;
22646;SDS011;11490;42.726;23.268;2023-09-12T15:47:44;7.65;;;2.35;;
22646;SDS011;11490;42.726;23.268;2023-09-12T15:50:10;3.60;;;1.58;;
22646;SDS011;11490;42.726;23.268;2023-09-12T15:52:35;3.65;;;2.58;;
22646;SDS011;11490;42.726;23.268;2023-09-12T15:55:06;3.03;;;1.73;;
22646;SDS011;11490;42.726;23.268;2023-09-12T15:57:33;4.70;;;1.92;;
22646;SDS011;11490;42.726;23.268;2023-09-12T16:00:00;3.55;;;2.00;;
22646;SDS011;11490;42.726;23.268;2023-09-12T16:02:29;5.28;;;2.20;;
22646;SDS011;11490;42.726;23.268;2023-09-12T16:04:55;5.18;;;2.30;;
22646;SDS011;11490;42.726;23.268;2023-09-12T16:07:20;3.53;;;2.13;;
22646;SDS011;11490;42.726;23.268;2023-09-12T16:09:45;5.35;;;1.90;;
22646;SDS011;11490;42.726;23.268;2023-09-12T16:12:12;8.00;;;2.58;;
22646;SDS011;11490;42.726;23.268;2023-09-12T16:14:37;6.00;;;2.17;;
22646;SDS011;11490;42.726;23.268;2023-09-12T16:17:03;6.13;;;2.65;;
22646;SDS011;11490;42.726;23.268;2023-09-12T16:19:28;6.10;;;2.58;;
22646;SDS011;11490;42.726;23.268;2023-09-12T16:21:54;7.20;;;2.70;;
22646;SDS011;11490;42.726;23.268;2023-09-12T16:24:19;7.85;;;2.35;;
22646;SDS011;11490;42.726;23.268;2023-09-12T16:26:44;7.50;;;3.22;;